createdAt,value
2023-07-12T00:02:01.344Z,31.42
2023-07-12T00:04:31.268Z,31.47
2023-07-12T00:07:01.885Z,31.43
2023-07-12T00:09:32.023Z,31.44
2023-07-12T00:12:02.239Z,31.41
2023-07-12T00:14:32.479Z,31.44
2023-07-12T00:17:02.718Z,31.47
2023-07-12T00:19:33.198Z,31.45
2023-07-12T00:22:03.653Z,31.49
2023-07-12T00:24:34.030Z,31.43
2023-07-12T00:27:04.446Z,31.44
2023-07-12T00:29:34.528Z,31.44
2023-07-12T00:32:04.618Z,31.47
2023-07-12T00:34:35.030Z,31.46
2023-07-12T00:37:06.098Z,31.46
2023-07-12T00:39:38.380Z,31.46
2023-07-12T00:42:15.912Z,31.42
2023-07-12T00:44:54.104Z,31.42
2023-07-12T00:47:25.322Z,31.42
2023-07-12T00:49:57.700Z,31.42
2023-07-12T00:52:28.710Z,31.45
2023-07-12T00:55:00.993Z,31.45
2023-07-12T00:57:36.149Z,31.42
2023-07-12T01:00:14.160Z,31.42
2023-07-12T01:02:49.444Z,31.45
2023-07-12T01:05:20.519Z,31.38
2023-07-12T01:07:50.809Z,31.33
2023-07-12T01:10:21.010Z,31.37
2023-07-12T01:12:53.290Z,31.42
2023-07-12T01:15:23.645Z,31.41
2023-07-12T01:17:54.649Z,31.34
2023-07-12T01:20:26.489Z,31.38
2023-07-12T01:22:59.480Z,31.38
2023-07-12T01:25:49.224Z,31.39
2023-07-12T01:28:21.012Z,31.42
2023-07-12T01:30:51.166Z,31.41
2023-07-12T01:33:22.250Z,31.48
2023-07-12T01:35:52.749Z,31.43
2023-07-12T01:38:22.917Z,31.49
2023-07-12T01:40:55.120Z,31.52
2023-07-12T01:43:26.036Z,31.50
2023-07-12T01:45:56.441Z,31.48
2023-07-12T01:48:28.764Z,31.46
2023-07-12T01:50:59.106Z,31.48
2023-07-12T01:53:30.473Z,31.51
2023-07-12T01:56:05.251Z,31.51
2023-07-12T01:58:37.381Z,31.52
2023-07-12T02:01:08.324Z,31.56
2023-07-12T02:03:39.430Z,31.56
2023-07-12T02:06:10.045Z,31.57
2023-07-12T02:08:40.216Z,31.56
2023-07-12T02:11:10.580Z,31.57
2023-07-12T02:13:41.930Z,31.57
2023-07-12T02:16:12.198Z,31.58
2023-07-12T02:18:42.475Z,31.61
2023-07-12T02:21:13.415Z,31.64
2023-07-12T02:23:43.608Z,31.63
2023-07-12T02:26:13.799Z,31.62
2023-07-12T02:28:43.964Z,31.63
2023-07-12T02:31:21.265Z,31.64
2023-07-12T02:33:53.225Z,31.66
2023-07-12T02:36:23.702Z,31.66
2023-07-12T02:38:54.152Z,31.66
2023-07-12T02:41:24.347Z,31.67
2023-07-12T02:43:54.505Z,31.69
2023-07-12T02:46:24.698Z,31.69
2023-07-12T02:48:54.863Z,31.65
2023-07-12T02:51:24.981Z,31.69
2023-07-12T02:53:55.216Z,31.66
2023-07-12T02:56:25.367Z,31.75
2023-07-12T02:58:55.506Z,31.75
2023-07-12T03:01:25.933Z,31.68
2023-07-12T03:03:59.376Z,31.73
2023-07-12T03:06:29.550Z,31.61
2023-07-12T03:08:59.649Z,31.62
2023-07-12T03:11:29.822Z,31.67
2023-07-12T03:14:00.175Z,31.74
2023-07-12T03:16:30.462Z,31.79
2023-07-12T03:19:00.794Z,31.69
2023-07-12T03:21:31.018Z,31.67
2023-07-12T03:24:01.131Z,31.77
2023-07-12T03:26:31.833Z,31.77
2023-07-12T03:29:02.292Z,31.66
2023-07-12T03:31:33.623Z,31.78
2023-07-12T03:34:03.767Z,31.79
2023-07-12T03:36:35.251Z,31.80
2023-07-12T03:39:05.397Z,31.81
2023-07-12T03:41:36.426Z,31.72
2023-07-12T03:44:06.820Z,31.79
2023-07-12T03:46:37.191Z,31.76
2023-07-12T03:49:07.364Z,31.78
2023-07-12T03:51:37.669Z,31.74
2023-07-12T03:54:07.768Z,31.76
2023-07-12T03:56:38.028Z,31.81
2023-07-12T03:59:08.428Z,31.85
2023-07-12T04:01:42.086Z,31.86
2023-07-12T04:04:13.240Z,31.81
2023-07-12T04:06:43.836Z,31.82
2023-07-12T04:09:14.650Z,31.86
2023-07-12T04:11:45.005Z,31.79
2023-07-12T04:14:15.182Z,31.76
2023-07-12T04:16:45.373Z,31.81
2023-07-12T04:19:16.237Z,31.81
2023-07-12T04:21:50.528Z,31.87
2023-07-12T04:24:20.677Z,31.88
2023-07-12T04:26:52.238Z,31.86
2023-07-12T04:29:22.495Z,31.81
2023-07-12T04:31:52.696Z,31.89
2023-07-12T04:34:37.313Z,31.86
2023-07-12T04:37:10.460Z,31.79
2023-07-12T04:39:40.589Z,31.78
2023-07-12T04:42:11.715Z,31.80
2023-07-12T04:44:41.893Z,31.85
2023-07-12T04:47:12.742Z,31.95
2023-07-12T04:49:42.978Z,31.86
2023-07-12T04:52:17.570Z,31.97
2023-07-12T04:54:49.356Z,31.95
2023-07-12T04:57:19.496Z,31.92
2023-07-12T04:59:49.594Z,31.95
2023-07-12T05:02:20.068Z,31.87
2023-07-12T05:04:53.402Z,31.94
2023-07-12T05:07:23.513Z,31.96
2023-07-12T05:09:53.718Z,32.01
2023-07-12T05:12:24.375Z,31.96
2023-07-12T05:14:54.780Z,32.00
2023-07-12T05:17:25.266Z,32.00
2023-07-12T05:19:58.720Z,31.96
2023-07-12T05:22:31.673Z,31.92
2023-07-12T05:25:03.886Z,32.00
2023-07-12T05:27:34.260Z,32.09
2023-07-12T05:30:04.373Z,32.04
2023-07-12T05:32:34.633Z,32.01
2023-07-12T05:35:04.893Z,32.03
2023-07-12T05:37:35.180Z,32.01
2023-07-12T05:40:07.512Z,32.01
2023-07-12T05:42:37.749Z,32.01
2023-07-12T05:45:08.309Z,32.00
2023-07-12T05:47:38.748Z,32.01
2023-07-12T05:50:10.520Z,32.14
2023-07-12T05:52:41.197Z,32.08
2023-07-12T05:55:14.775Z,32.00
2023-07-12T05:57:44.920Z,32.11
2023-07-12T06:00:16.684Z,32.13
2023-07-12T06:02:47.063Z,32.09
2023-07-12T06:05:17.351Z,32.17
2023-07-12T06:07:47.674Z,32.04
2023-07-12T06:10:19.177Z,32.11
2023-07-12T06:12:52.376Z,32.22
2023-07-12T06:15:23.073Z,32.23
2023-07-12T06:17:53.458Z,32.22
2023-07-12T06:20:24.106Z,32.27
2023-07-12T06:22:54.270Z,32.12
2023-07-12T06:25:24.554Z,32.17
2023-07-12T06:27:55.273Z,32.08
2023-07-12T06:30:26.138Z,32.23
2023-07-12T06:32:56.341Z,32.18
2023-07-12T06:35:26.963Z,32.26
2023-07-12T06:37:57.712Z,32.14
2023-07-12T06:40:27.992Z,32.15
2023-07-12T06:42:58.282Z,32.20
2023-07-12T06:45:29.640Z,32.19
2023-07-12T06:48:01.236Z,32.23
2023-07-12T06:50:31.508Z,32.18
2023-07-12T06:53:01.688Z,32.17
2023-07-12T06:55:32.238Z,32.23
2023-07-12T06:58:02.838Z,32.25
2023-07-12T07:00:32.989Z,32.21
2023-07-12T07:03:04.235Z,32.17
2023-07-12T07:05:36.002Z,32.15
2023-07-12T07:08:07.407Z,32.27
2023-07-12T07:10:38.335Z,32.27
2023-07-12T07:13:08.562Z,32.21
2023-07-12T07:15:39.318Z,32.31
2023-07-12T07:18:11.351Z,32.27
2023-07-12T07:20:46.977Z,32.25
2023-07-12T07:23:17.803Z,32.24
2023-07-12T07:25:48.043Z,32.38
2023-07-12T07:28:18.450Z,32.33
2023-07-12T07:30:48.598Z,32.28
2023-07-12T07:33:18.769Z,32.36
2023-07-12T07:35:48.959Z,32.29
2023-07-12T07:38:19.292Z,32.27
2023-07-12T07:40:49.449Z,32.28
2023-07-12T07:43:19.949Z,32.33
2023-07-12T07:45:52.749Z,32.35
2023-07-12T07:48:23.395Z,32.32
2023-07-12T07:50:53.617Z,32.40
2023-07-12T07:53:23.957Z,32.41
2023-07-12T07:55:55.021Z,32.39
2023-07-12T07:58:25.754Z,32.31
2023-07-12T08:00:56.408Z,32.39
2023-07-12T08:03:26.755Z,32.42
2023-07-12T08:06:03.568Z,32.44
2023-07-12T08:08:33.920Z,32.45
2023-07-12T08:11:05.908Z,32.36
2023-07-12T08:13:36.325Z,32.39
2023-07-12T08:16:06.618Z,32.47
2023-07-12T08:18:37.803Z,32.33
2023-07-12T08:21:08.639Z,32.39
2023-07-12T08:23:39.155Z,32.33
2023-07-12T08:26:10.510Z,32.47
2023-07-12T08:28:40.788Z,32.43
2023-07-12T08:31:11.340Z,32.41
2023-07-12T08:33:41.835Z,32.42
2023-07-12T08:36:12.057Z,32.50
2023-07-12T08:38:42.670Z,32.46
2023-07-12T08:41:19.593Z,32.45
2023-07-12T08:43:50.251Z,32.46
2023-07-12T08:46:28.778Z,32.45
2023-07-12T08:49:04.327Z,32.50
2023-07-12T08:51:38.891Z,32.44
2023-07-12T08:54:09.561Z,32.44
2023-07-12T08:56:40.025Z,32.52
2023-07-12T08:59:18.624Z,32.46
2023-07-12T09:01:52.808Z,32.58
2023-07-12T09:04:32.114Z,32.59
2023-07-12T09:07:06.227Z,32.55
2023-07-12T09:09:42.103Z,32.53
2023-07-12T09:12:35.317Z,32.55
2023-07-12T09:15:12.100Z,32.64
2023-07-12T09:17:46.342Z,32.60
2023-07-12T09:20:32.159Z,32.57
2023-07-12T09:23:04.147Z,32.59
2023-07-12T09:25:42.764Z,32.62
2023-07-12T09:28:17.331Z,32.64
2023-07-12T09:30:48.647Z,32.55
2023-07-12T09:33:31.947Z,32.53
2023-07-12T09:36:08.925Z,32.63
2023-07-12T09:38:41.602Z,32.73
2023-07-12T09:41:22.322Z,32.63
2023-07-12T09:44:00.844Z,32.72
2023-07-12T09:46:45.985Z,32.58
2023-07-12T09:49:24.850Z,32.72
2023-07-12T09:52:30.122Z,32.71
2023-07-12T09:55:08.091Z,32.69
2023-07-12T09:57:49.484Z,32.67
2023-07-12T10:00:51.636Z,32.73
2023-07-12T10:03:31.346Z,32.57
2023-07-12T10:06:15.983Z,32.69
2023-07-12T10:08:57.135Z,32.57
2023-07-12T10:11:42.340Z,32.72
2023-07-12T10:14:18.030Z,32.67
2023-07-12T10:16:57.176Z,32.76
2023-07-12T10:19:41.760Z,32.72
2023-07-12T10:22:31.100Z,32.74
2023-07-12T10:25:04.134Z,32.69
2023-07-12T10:27:40.027Z,32.67
2023-07-12T10:30:24.795Z,32.67
2023-07-12T10:33:02.344Z,32.71
2023-07-12T10:35:52.998Z,32.77
2023-07-12T10:38:26.839Z,32.77
2023-07-12T10:41:25.334Z,32.73
2023-07-12T10:44:10.623Z,32.75
2023-07-12T10:46:46.610Z,32.78
2023-07-12T10:49:24.260Z,32.80
2023-07-12T10:52:30.344Z,32.74
2023-07-12T10:55:06.759Z,32.70
2023-07-12T10:57:49.908Z,32.77
2023-07-12T11:00:21.309Z,32.79
2023-07-12T11:03:15.740Z,32.77
2023-07-12T11:06:02.517Z,32.77
2023-07-12T11:08:35.869Z,32.75
2023-07-12T11:11:25.948Z,32.85
2023-07-12T11:14:12.469Z,32.76
2023-07-12T11:17:16.406Z,32.76
2023-07-12T11:19:49.823Z,32.76
2023-07-12T11:22:55.314Z,32.75
2023-07-12T11:25:47.572Z,32.77
2023-07-12T11:28:26.677Z,32.78
2023-07-12T11:31:21.956Z,32.83
2023-07-12T11:34:09.442Z,32.80
2023-07-12T11:36:40.330Z,32.80
2023-07-12T11:39:27.224Z,32.86
2023-07-12T11:42:02.704Z,32.84
2023-07-12T11:44:32.892Z,32.87
2023-07-12T11:47:03.175Z,32.90
2023-07-12T11:49:34.793Z,32.93
2023-07-12T11:52:15.513Z,32.84
2023-07-12T11:54:46.614Z,32.87
2023-07-12T11:57:17.300Z,32.87
2023-07-12T11:59:50.876Z,32.86
2023-07-12T12:02:24.571Z,32.85
2023-07-12T12:05:02.923Z,32.89
2023-07-12T12:07:42.188Z,32.84
2023-07-12T12:10:29.446Z,32.85
2023-07-12T12:12:59.897Z,32.88
2023-07-12T12:15:33.901Z,32.88
2023-07-12T12:18:20.941Z,32.85
2023-07-12T12:21:00.391Z,32.90
2023-07-12T12:23:42.828Z,32.88
2023-07-12T12:26:26.190Z,32.84
2023-07-12T13:05:01.751Z,32.11
2023-07-12T13:08:45.022Z,32.15
2023-07-12T13:16:22.426Z,32.27
2023-07-12T13:19:10.576Z,32.32
2023-07-12T13:21:27.118Z,32.46
2023-07-12T13:23:58.414Z,32.43
2023-07-12T13:26:28.859Z,32.49
2023-07-12T13:28:59.093Z,32.54
2023-07-12T13:31:29.452Z,32.54
2023-07-12T13:34:11.401Z,32.61
2023-07-12T13:36:48.530Z,32.61
2023-07-12T13:47:02.244Z,32.74
2023-07-12T13:49:32.602Z,32.77
2023-07-12T13:52:02.787Z,32.78
2023-07-12T13:54:32.991Z,32.70
2023-07-12T13:57:08.738Z,32.65
2023-07-12T13:59:40.188Z,32.71
2023-07-12T14:10:26.458Z,32.62
2023-07-12T14:12:57.018Z,32.71
2023-07-12T14:16:18.623Z,32.68
2023-07-12T14:18:49.149Z,32.65
2023-07-12T14:21:22.327Z,32.64
2023-07-12T14:23:54.571Z,32.63
2023-07-12T14:26:29.173Z,32.66
2023-07-12T14:29:01.469Z,32.65
2023-07-12T14:31:34.821Z,32.68
2023-07-12T14:34:06.220Z,32.60
2023-07-12T14:36:37.336Z,32.67
2023-07-12T14:39:07.264Z,32.61
2023-07-12T14:41:37.548Z,32.62
2023-07-12T14:44:19.023Z,32.61
2023-07-12T14:46:49.838Z,32.64
2023-07-12T14:49:20.157Z,32.65
2023-07-12T14:52:03.898Z,32.66
2023-07-12T14:54:49.015Z,32.65
2023-07-12T14:57:59.802Z,32.62
2023-07-12T15:00:19.542Z,32.74
2023-07-12T15:03:00.795Z,32.75
2023-07-12T15:05:31.921Z,32.77
2023-07-12T15:08:02.278Z,32.80
2023-07-12T15:10:34.205Z,32.78
2023-07-12T15:13:06.791Z,32.78
2023-07-12T15:15:37.113Z,32.70
2023-07-12T15:18:07.333Z,32.69
2023-07-12T15:20:40.190Z,32.57
2023-07-12T15:23:37.308Z,32.44
2023-07-12T15:26:07.927Z,32.41
2023-07-12T15:28:42.263Z,32.44
2023-07-12T15:31:38.064Z,32.63
2023-07-12T15:34:09.447Z,32.72
2023-07-12T15:36:39.777Z,32.76
2023-07-12T15:39:10.027Z,32.80
2023-07-12T15:41:40.622Z,32.89
2023-07-12T15:44:13.123Z,32.84
2023-07-12T15:46:43.342Z,32.86
2023-07-12T15:49:14.057Z,32.89
2023-07-12T15:51:51.532Z,32.89
2023-07-12T15:54:34.424Z,32.91
2023-07-12T15:57:04.824Z,32.91
2023-07-12T15:59:37.121Z,32.91
2023-07-12T16:02:16.855Z,32.92
2023-07-12T16:04:51.558Z,32.97
2023-07-12T16:07:21.792Z,32.91
2023-07-12T16:09:52.271Z,32.95
2023-07-12T16:12:28.673Z,32.95
2023-07-12T16:14:59.038Z,32.97
2023-07-12T16:17:29.250Z,32.96
2023-07-12T16:19:59.445Z,32.95
2023-07-12T16:22:32.524Z,32.93
2023-07-12T16:25:02.798Z,32.93
2023-07-12T16:27:32.954Z,32.94
2023-07-12T16:30:03.961Z,32.92
2023-07-12T16:32:34.242Z,32.92
2023-07-12T16:35:04.438Z,32.94
2023-07-12T16:37:34.613Z,32.89
2023-07-12T16:40:09.537Z,32.95
2023-07-12T16:42:41.830Z,32.90
2023-07-12T16:45:28.239Z,32.84
2023-07-12T16:47:58.438Z,32.84
2023-07-12T16:50:28.844Z,32.91
2023-07-12T16:52:59.076Z,32.92
2023-07-12T16:55:31.195Z,32.93
2023-07-12T16:58:01.380Z,32.91
2023-07-12T17:00:32.962Z,32.92
2023-07-12T17:03:03.688Z,32.87
2023-07-12T17:05:34.050Z,32.84
2023-07-12T17:08:04.389Z,32.82
2023-07-12T17:10:34.853Z,32.83
2023-07-12T17:13:05.245Z,32.80
2023-07-12T17:15:35.486Z,32.76
2023-07-12T17:18:06.278Z,32.80
2023-07-12T17:20:38.909Z,32.80
2023-07-12T17:23:22.973Z,32.84
2023-07-12T17:25:56.194Z,32.83
2023-07-12T17:28:31.290Z,32.83
2023-07-12T17:31:09.963Z,32.80
2023-07-12T17:33:40.771Z,32.79
2023-07-12T17:36:15.068Z,32.78
2023-07-12T17:38:47.646Z,32.82
2023-07-12T17:41:24.564Z,32.83
2023-07-12T17:43:55.904Z,32.79
2023-07-12T17:46:26.181Z,32.81
2023-07-12T17:48:56.619Z,32.77
2023-07-12T17:51:31.548Z,32.85
2023-07-12T17:54:01.672Z,32.85
2023-07-12T17:56:31.853Z,32.80
2023-07-12T17:59:01.969Z,32.82
2023-07-12T18:01:34.848Z,32.80
2023-07-12T18:04:06.839Z,32.81
2023-07-12T18:06:38.479Z,32.79
2023-07-12T18:09:09.385Z,32.78
2023-07-12T18:11:45.256Z,32.77
2023-07-12T18:14:22.436Z,32.77
2023-07-12T18:16:54.849Z,32.73
2023-07-12T18:19:25.066Z,32.77
2023-07-12T18:21:55.500Z,32.73
2023-07-12T18:24:28.629Z,32.74
2023-07-12T18:26:58.865Z,32.77
2023-07-12T18:29:29.061Z,32.78
2023-07-12T18:32:00.371Z,32.80
2023-07-12T18:34:32.722Z,32.76
2023-07-12T18:37:03.056Z,32.79
2023-07-12T18:39:34.556Z,32.75
2023-07-12T18:42:04.729Z,32.74
2023-07-12T18:44:34.920Z,32.76
2023-07-12T18:47:05.126Z,32.77
2023-07-12T18:49:35.704Z,32.74
2023-07-12T18:52:07.024Z,32.74
2023-07-12T18:54:36.873Z,32.78
2023-07-12T18:57:07.322Z,32.73
2023-07-12T18:59:37.456Z,32.75
2023-07-12T19:02:20.183Z,32.77
2023-07-12T19:04:53.468Z,32.65
2023-07-12T19:07:30.793Z,32.74
2023-07-12T19:10:01.254Z,32.70
2023-07-12T19:12:31.481Z,32.73
2023-07-12T19:15:05.062Z,32.75
2023-07-12T19:17:35.626Z,32.71
2023-07-12T19:20:06.914Z,32.73
2023-07-12T19:22:36.782Z,32.75
2023-07-12T19:25:07.632Z,32.74
2023-07-12T19:27:43.190Z,32.73
2023-07-12T19:30:19.488Z,32.70
2023-07-12T19:32:49.761Z,32.71
2023-07-12T19:35:29.025Z,32.71
2023-07-12T19:37:59.254Z,32.73
2023-07-12T19:40:29.673Z,32.67
2023-07-12T19:43:00.434Z,32.71
2023-07-12T19:45:31.806Z,32.72
2023-07-12T19:48:03.463Z,32.68
2023-07-12T19:50:34.960Z,32.74
2023-07-12T19:53:26.115Z,32.73
2023-07-12T19:55:57.585Z,32.72
2023-07-12T19:58:29.765Z,32.72
2023-07-12T20:01:00.059Z,32.72
2023-07-12T20:03:31.189Z,32.72
2023-07-12T20:06:01.411Z,32.72
2023-07-12T20:08:32.139Z,32.71
2023-07-12T20:11:02.460Z,32.70
2023-07-12T20:13:38.684Z,32.75
2023-07-12T20:16:09.506Z,32.74
2023-07-12T20:18:39.985Z,32.71
2023-07-12T20:21:10.092Z,32.68
2023-07-12T20:23:40.886Z,32.71
2023-07-12T20:26:13.059Z,32.65
2023-07-12T20:28:44.153Z,32.63
2023-07-12T20:31:17.419Z,32.64
2023-07-12T20:33:49.793Z,32.68
2023-07-12T20:36:20.044Z,32.66
2023-07-12T20:38:50.306Z,32.64
2023-07-12T20:41:20.484Z,32.61
2023-07-12T20:43:51.307Z,32.61
2023-07-12T20:46:21.652Z,32.63
2023-07-12T20:48:51.781Z,32.60
2023-07-12T20:51:22.490Z,32.59
2023-07-12T20:53:54.300Z,32.61
2023-07-12T20:56:24.698Z,32.61
2023-07-12T20:58:57.698Z,32.63
2023-07-12T21:01:30.793Z,32.57
2023-07-12T21:04:00.899Z,32.60
2023-07-12T21:06:31.172Z,32.63
2023-07-12T21:09:01.640Z,32.61
2023-07-12T21:11:33.583Z,32.61
2023-07-12T21:14:03.819Z,32.60
2023-07-12T21:16:34.397Z,32.63
2023-07-12T21:19:04.531Z,32.63
2023-07-12T21:21:34.667Z,32.59
2023-07-12T21:24:04.901Z,32.56
2023-07-12T21:26:35.149Z,32.55
2023-07-12T21:29:05.732Z,32.57
2023-07-12T21:31:37.024Z,32.50
2023-07-12T21:34:08.779Z,32.55
2023-07-12T21:36:39.394Z,32.51
2023-07-12T21:39:09.557Z,32.52
2023-07-12T21:41:39.923Z,32.50
2023-07-12T21:44:10.477Z,32.50
2023-07-12T21:46:40.631Z,32.52
2023-07-12T21:49:10.882Z,32.45
2023-07-12T21:51:41.020Z,32.50
2023-07-12T21:54:11.308Z,32.48
2023-07-12T21:56:41.742Z,32.49
2023-07-12T21:59:12.207Z,32.47
2023-07-12T22:01:42.451Z,32.49
2023-07-12T22:04:12.921Z,32.45
2023-07-12T22:06:45.895Z,32.44
2023-07-12T22:09:16.610Z,32.47
2023-07-12T22:11:47.297Z,32.47
2023-07-12T22:14:17.496Z,32.44
2023-07-12T22:16:48.522Z,32.43
2023-07-12T22:19:18.751Z,32.36
2023-07-12T22:21:49.937Z,32.36
2023-07-12T22:24:19.639Z,32.44
2023-07-12T22:26:49.862Z,32.41
2023-07-12T22:29:19.956Z,32.37
2023-07-12T22:31:50.435Z,32.40
2023-07-12T22:34:20.680Z,32.42
2023-07-12T22:36:51.903Z,32.40
2023-07-12T22:39:23.187Z,32.35
2023-07-12T22:41:56.323Z,32.40
2023-07-12T22:45:50.383Z,32.28
2023-07-12T22:48:20.725Z,32.19
2023-07-12T22:50:51.060Z,32.23
2023-07-12T22:53:21.468Z,32.15
2023-07-12T22:56:01.880Z,32.09
2023-07-12T22:58:32.911Z,32.07
2023-07-12T23:01:04.199Z,32.09
2023-07-12T23:03:34.001Z,32.10
2023-07-12T23:06:06.298Z,32.03
2023-07-12T23:08:37.158Z,32.07
2023-07-12T23:11:07.322Z,32.06
2023-07-12T23:13:37.929Z,31.98
2023-07-12T23:16:19.252Z,31.95
2023-07-12T23:18:50.263Z,31.97
2023-07-12T23:21:22.739Z,32.00
2023-07-12T23:23:54.526Z,32.03
2023-07-12T23:26:25.008Z,32.03
2023-07-12T23:29:02.246Z,31.98
2023-07-12T23:31:32.403Z,32.02
2023-07-12T23:34:03.237Z,32.04
2023-07-12T23:36:35.504Z,31.99
2023-07-12T23:39:08.050Z,32.01
2023-07-12T23:41:38.296Z,32.00
2023-07-12T23:44:08.636Z,32.01
2023-07-12T23:46:38.867Z,31.97
2023-07-12T23:49:08.988Z,31.98
2023-07-12T23:51:40.827Z,32.00
2023-07-12T23:54:13.462Z,32.03
2023-07-12T23:56:43.573Z,31.97
2023-07-12T23:59:14.203Z,32.00
